Time;durP1;ratioP1;P1;durP2;ratioP2;P2;SDS_P1;SDS_P2;PMS_P1;PMS_P2;Temp;Humidity;BMP_temperature;BMP_pressure;BME280_temperature;BME280_humidity;BME280_pressure;Samples;Min_cycle;Max_cycle;Signal;HPM_P1;HPM_P2
2023/07/29 00:00:22;;;;;;;;;;;;;;;;;;5009533;28;19926;-64
2023/07/29 00:02:47;;;;;;;;;;;;;;;;;;5010006;28;19928;-65
2023/07/29 00:05:13;;;;;;;;;;;;;;;;;;4991778;28;19922;-64
2023/07/29 00:07:39;;;;;;;;;;;;;;;;;;5009982;28;20650;-65
2023/07/29 00:10:05;;;;;;;;;;;;;;;;;;5008324;28;19925;-64
2023/07/29 00:12:31;;;;;;;;;;;;;;;;;;5009442;28;19921;-64
2023/07/29 00:14:57;;;;;;;;;;;;;;;;;;5010145;28;19994;-64
2023/07/29 00:17:23;;;;;;;;;;;;;;;;;;5008279;28;19929;-64
2023/07/29 00:19:49;;;;;;;;;;;;;;;;;;5010402;28;19933;-64
2023/07/29 00:22:15;;;;;;;;;;;;;;;;;;5011000;28;20359;-64
2023/07/29 00:24:41;;;;;;;;;;;;;;;;;;5008575;28;19929;-64
2023/07/29 00:27:07;;;;;;;;;;;;;;;;;;5007551;28;20514;-65
2023/07/29 00:29:33;;;;;;;;;;;;;;;;;;5010056;28;20000;-64
2023/07/29 00:31:59;;;;;;;;;;;;;;;;;;4987463;28;19968;-65
2023/07/29 00:34:25;;;;;;;;;;;;;;;;;;4990169;28;20288;-64
2023/07/29 00:36:50;;;;;;;;;;;;;;;;;;5011547;28;19929;-64
2023/07/29 00:39:16;;;;;;;;;;;;;;;;;;5010562;28;19928;-64
2023/07/29 00:41:42;;;;;;;;;;;;;;;;;;5013310;28;20379;-65
2023/07/29 00:44:08;;;;;;;;;;;;;;;;;;5019906;28;19926;-64
2023/07/29 00:46:34;;;;;;;;;;;;;;;;;;5011255;28;19932;-64
2023/07/29 00:49:00;;;;;;;;;;;;;;;;;;4996261;28;20024;-64
2023/07/29 00:51:26;;;;;;;;;;;;;;;;;;5014750;28;20364;-64
2023/07/29 00:53:52;;;;;;;;;;;;;;;;;;5012042;28;19929;-64
2023/07/29 00:56:18;;;;;;;;;;;;;;;;;;4996439;28;20405;-64
2023/07/29 00:58:44;;;;;;;;;;;;;;;;;;5008006;28;19929;-64
2023/07/29 01:01:09;;;;;;;;;;;;;;;;;;5014162;28;19983;-64
2023/07/29 01:03:35;;;;;;;;;;;;;;;;;;5013008;28;19933;-64
2023/07/29 01:06:02;;;;;;;;;;;;;;;;;;5014996;28;19976;-64
2023/07/29 01:08:28;;;;;;;;;;;;;;;;;;5010105;28;19922;-64
2023/07/29 01:10:54;;;;;;;;;;;;;;;;;;4993782;28;19929;-64
2023/07/29 01:13:20;;;;;;;;;;;;;;;;;;5013902;28;19968;-64
2023/07/29 01:15:46;;;;;;;;;;;;;;;;;;5012146;28;20402;-64
2023/07/29 01:18:12;;;;;;;;;;;;;;;;;;5013778;28;19928;-64
2023/07/29 01:20:38;;;;;;;;;;;;;;;;;;5012500;28;19968;-64
2023/07/29 01:23:04;;;;;;;;;;;;;;;;;;5013537;28;19929;-64
2023/07/29 01:25:29;;;;;;;;;;;;;;;;;;4992946;28;19948;-64
2023/07/29 01:27:55;;;;;;;;;;;;;;;;;;5010731;28;19922;-64
2023/07/29 01:30:21;;;;;;;;;;;;;;;;;;4993700;28;19922;-65
2023/07/29 01:32:47;;;;;;;;;;;;;;;;;;5013976;28;20389;-64
2023/07/29 01:35:13;;;;;;;;;;;;;;;;;;5013134;28;19929;-64
2023/07/29 01:37:39;;;;;;;;;;;;;;;;;;5012587;28;20290;-64
2023/07/29 01:40:05;;;;;;;;;;;;;;;;;;5010497;28;19971;-64
2023/07/29 01:42:31;;;;;;;;;;;;;;;;;;5005576;28;19953;-64
2023/07/29 01:44:57;;;;;;;;;;;;;;;;;;5013579;28;19926;-64
2023/07/29 01:47:23;;;;;;;;;;;;;;;;;;5010017;28;19928;-64
2023/07/29 01:49:49;;;;;;;;;;;;;;;;;;5011495;28;19974;-64
2023/07/29 01:52:15;;;;;;;;;;;;;;;;;;5010854;28;20399;-64
2023/07/29 01:54:41;;;;;;;;;;;;;;;;;;5010449;28;19968;-64
2023/07/29 01:57:07;;;;;;;;;;;;;;;;;;5012380;28;19928;-64
2023/07/29 01:59:33;;;;;;;;;;;;;;;;;;5011495;28;19928;-64
2023/07/29 02:01:59;;;;;;;;;;;;;;;;;;5010116;28;19948;-64
2023/07/29 02:04:24;;;;;;;;;;;;;;;;;;5007509;28;19937;-65
2023/07/29 02:06:50;;;;;;;;;;;;;;;;;;4994050;28;20347;-65
2023/07/29 02:09:16;;;;;;;;;;;;;;;;;;5007916;28;20009;-65
2023/07/29 02:11:42;;;;;;;;;;;;;;;;;;5009462;28;19925;-65
2023/07/29 02:14:08;;;;;;;;;;;;;;;;;;5012130;28;19922;-64
2023/07/29 02:16:34;;;;;;;;;;;;;;;;;;5010266;28;19921;-64
2023/07/29 02:19:00;;;;;;;;;;;;;;;;;;5009445;28;19925;-64
2023/07/29 02:21:26;;;;;;;;;;;;;;;;;;5011784;28;20311;-64
2023/07/29 02:23:52;;;;;;;;;;;;;;;;;;5010055;28;19925;-65
2023/07/29 02:26:18;;;;;;;;;;;;;;;;;;5016874;28;19922;-65
2023/07/29 02:28:44;;;;;;;;;;;;;;;;;;4990233;28;20036;-65
2023/07/29 02:31:10;;;;;;;;;;;;;;;;;;4991427;28;19925;-64
2023/07/29 02:33:36;;;;;;;;;;;;;;;;;;5010419;28;19925;-64
2023/07/29 02:36:02;;;;;;;;;;;;;;;;;;4994325;28;19926;-64
2023/07/29 02:38:28;;;;;;;;;;;;;;;;;;4977557;28;20121;-64
2023/07/29 02:40:54;;;;;;;;;;;;;;;;;;5007175;28;19988;-64
2023/07/29 02:43:20;;;;;;;;;;;;;;;;;;5004537;28;19965;-64
2023/07/29 02:45:45;;;;;;;;;;;;;;;;;;5005479;28;19936;-64
2023/07/29 02:48:11;;;;;;;;;;;;;;;;;;5010644;28;19925;-64
2023/07/29 02:50:37;;;;;;;;;;;;;;;;;;5003127;28;20330;-65
2023/07/29 02:53:03;;;;;;;;;;;;;;;;;;5007841;28;19932;-64
2023/07/29 02:55:29;;;;;;;;;;;;;;;;;;5010186;28;20041;-65
2023/07/29 02:57:55;;;;;;;;;;;;;;;;;;4992260;28;19929;-64
2023/07/29 03:00:21;;;;;;;;;;;;;;;;;;4990631;28;20598;-64
2023/07/29 03:02:47;;;;;;;;;;;;;;;;;;5009421;28;20052;-64
2023/07/29 03:05:13;;;;;;;;;;;;;;;;;;5011146;28;20330;-64
2023/07/29 03:07:38;;;;;;;;;;;;;;;;;;5006767;28;19921;-64
2023/07/29 03:10:05;;;;;;;;;;;;;;;;;;5009393;28;19925;-64
2023/07/29 03:12:31;;;;;;;;;;;;;;;;;;5008773;28;19926;-64
2023/07/29 03:14:57;;;;;;;;;;;;;;;;;;5010810;28;20020;-65
2023/07/29 03:17:23;;;;;;;;;;;;;;;;;;4992675;28;19936;-64
2023/07/29 03:19:50;;;;;;;;;;;;;;;;;;5012450;28;19975;-65
2023/07/29 03:22:15;;;;;;;;;;;;;;;;;;4993879;28;19940;-64
2023/07/29 03:24:42;;;;;;;;;;;;;;;;;;5010283;28;19929;-64
2023/07/29 03:27:09;;;;;;;;;;;;;;;;;;5011573;28;19960;-64
2023/07/29 03:29:35;;;;;;;;;;;;;;;;;;5009232;28;19967;-64
2023/07/29 03:32:01;;;;;;;;;;;;;;;;;;5008257;28;19929;-64
2023/07/29 03:34:27;;;;;;;;;;;;;;;;;;5009502;28;19967;-64
2023/07/29 03:36:53;;;;;;;;;;;;;;;;;;5009935;28;19961;-64
2023/07/29 03:39:19;;;;;;;;;;;;;;;;;;5009697;28;20329;-64
2023/07/29 03:41:45;;;;;;;;;;;;;;;;;;4975736;28;19925;-65
2023/07/29 03:44:11;;;;;;;;;;;;;;;;;;5009766;28;20398;-64
2023/07/29 03:46:37;;;;;;;;;;;;;;;;;;5011164;28;19967;-64
2023/07/29 03:49:03;;;;;;;;;;;;;;;;;;5010001;28;19984;-64
2023/07/29 03:51:29;;;;;;;;;;;;;;;;;;5011447;28;19929;-64
2023/07/29 03:53:54;;;;;;;;;;;;;;;;;;4991241;28;19930;-64
2023/07/29 03:56:20;;;;;;;;;;;;;;;;;;4992097;28;19930;-64
2023/07/29 03:58:48;;;;;;;;;;;;;;;;;;5009921;28;19968;-64
2023/07/29 04:01:14;;;;;;;;;;;;;;;;;;5008726;28;19932;-64
2023/07/29 04:03:39;;;;;;;;;;;;;;;;;;5007993;28;20560;-64
2023/07/29 04:06:05;;;;;;;;;;;;;;;;;;5011253;28;19928;-65
2023/07/29 04:08:31;;;;;;;;;;;;;;;;;;5014755;23;19941;-61
2023/07/29 04:10:57;;;;;;;;;;;;;;;;;;5011638;28;19991;-61
2023/07/29 04:13:23;;;;;;;;;;;;;;;;;;5013346;28;19922;-61
2023/07/29 04:15:49;;;;;;;;;;;;;;;;;;5013052;28;20531;-62
2023/07/29 04:18:15;;;;;;;;;;;;;;;;;;5014795;28;19960;-61
2023/07/29 04:20:41;;;;;;;;;;;;;;;;;;5012450;28;19925;-61
2023/07/29 04:23:07;;;;;;;;;;;;;;;;;;5013172;28;19929;-62
2023/07/29 04:25:33;;;;;;;;;;;;;;;;;;5012539;28;19929;-61
2023/07/29 04:27:59;;;;;;;;;;;;;;;;;;5014601;28;19926;-62
2023/07/29 04:30:24;;;;;;;;;;;;;;;;;;5010621;28;20373;-61
2023/07/29 04:32:50;;;;;;;;;;;;;;;;;;5012545;28;19925;-61
2023/07/29 04:35:16;;;;;;;;;;;;;;;;;;4997424;28;20332;-61
2023/07/29 04:37:42;;;;;;;;;;;;;;;;;;5009867;28;19929;-61
2023/07/29 04:40:08;;;;;;;;;;;;;;;;;;4996664;28;19925;-61
2023/07/29 04:42:34;;;;;;;;;;;;;;;;;;5013997;28;19925;-61
2023/07/29 04:45:00;;;;;;;;;;;;;;;;;;5013240;28;19925;-61
2023/07/29 04:47:26;;;;;;;;;;;;;;;;;;5010266;28;20416;-61
2023/07/29 04:49:52;;;;;;;;;;;;;;;;;;5014995;28;19929;-61
2023/07/29 04:52:19;;;;;;;;;;;;;;;;;;5011291;28;19922;-61
2023/07/29 04:54:45;;;;;;;;;;;;;;;;;;5014800;28;19941;-61
2023/07/29 04:57:11;;;;;;;;;;;;;;;;;;5014058;28;19922;-61
2023/07/29 04:59:37;;;;;;;;;;;;;;;;;;5014880;28;19922;-61
2023/07/29 05:02:03;;;;;;;;;;;;;;;;;;5004930;28;19921;-61
2023/07/29 05:04:28;;;;;;;;;;;;;;;;;;5015071;28;20012;-61
2023/07/29 05:06:54;;;;;;;;;;;;;;;;;;5014895;28;19925;-62
2023/07/29 05:09:21;;;;;;;;;;;;;;;;;;5015003;28;19922;-62
2023/07/29 05:11:47;;;;;;;;;;;;;;;;;;4996874;28;19925;-61
2023/07/29 05:14:13;;;;;;;;;;;;;;;;;;5013380;28;19925;-62
2023/07/29 05:16:38;;;;;;;;;;;;;;;;;;5013736;28;19928;-61
2023/07/29 05:19:04;;;;;;;;;;;;;;;;;;5008767;28;19921;-61
2023/07/29 05:21:30;;;;;;;;;;;;;;;;;;5004180;28;20271;-61
2023/07/29 05:23:56;;;;;;;;;;;;;;;;;;5011318;28;19937;-61
2023/07/29 05:26:22;;;;;;;;;;;;;;;;;;5014449;28;19925;-62
2023/07/29 05:28:48;;;;;;;;;;;;;;;;;;4995117;28;19922;-61
2023/07/29 05:31:14;;;;;;;;;;;;;;;;;;5010279;28;19931;-62
2023/07/29 05:33:40;;;;;;;;;;;;;;;;;;5012623;28;19925;-61
2023/07/29 05:36:06;;;;;;;;;;;;;;;;;;5013486;28;19949;-61
2023/07/29 05:38:32;;;;;;;;;;;;;;;;;;5012832;28;20387;-61
2023/07/29 05:40:57;;;;;;;;;;;;;;;;;;5007314;28;19964;-61
2023/07/29 05:43:23;;;;;;;;;;;;;;;;;;5012425;28;19926;-61
2023/07/29 05:45:50;;;;;;;;;;;;;;;;;;5011346;28;19928;-61
2023/07/29 05:48:16;;;;;;;;;;;;;;;;;;5013178;28;19926;-61
2023/07/29 05:50:42;;;;;;;;;;;;;;;;;;5012762;28;19956;-61
2023/07/29 05:53:08;;;;;;;;;;;;;;;;;;5006361;28;19921;-61
2023/07/29 05:55:34;;;;;;;;;;;;;;;;;;5021429;28;19976;-62
2023/07/29 05:58:00;;;;;;;;;;;;;;;;;;5010613;28;19926;-61
2023/07/29 06:00:26;;;;;;;;;;;;;;;;;;5011248;28;21846;-61
2023/07/29 06:02:51;;;;;;;;;;;;;;;;;;5009757;28;19926;-61
2023/07/29 06:05:17;;;;;;;;;;;;;;;;;;5002534;28;20011;-62
2023/07/29 06:07:44;;;;;;;;;;;;;;;;;;4990713;28;20409;-61
2023/07/29 06:10:13;;;;;;;;;;;;;;;;;;4990136;28;19949;-61
2023/07/29 06:12:39;;;;;;;;;;;;;;;;;;5007639;28;19921;-61
2023/07/29 06:15:05;;;;;;;;;;;;;;;;;;5010074;28;19936;-61
2023/07/29 06:17:31;;;;;;;;;;;;;;;;;;5011348;28;20359;-61
2023/07/29 06:19:57;;;;;;;;;;;;;;;;;;5003780;28;19928;-61
2023/07/29 06:22:23;;;;;;;;;;;;;;;;;;4984285;28;20311;-61
2023/07/29 06:24:49;;;;;;;;;;;;;;;;;;5005463;28;19929;-61
2023/07/29 06:27:14;;;;;;;;;;;;;;;;;;5000088;28;19972;-61
2023/07/29 06:29:40;;;;;;;;;;;;;;;;;;5005362;28;19922;-61
2023/07/29 06:32:06;;;;;;;;;;;;;;;;;;4988911;28;20371;-61
2023/07/29 06:34:32;;;;;;;;;;;;;;;;;;5011468;28;19929;-62
2023/07/29 06:36:58;;;;;;;;;;;;;;;;;;5009900;28;19929;-62
2023/07/29 06:39:24;;;;;;;;;;;;;;;;;;5011157;28;20539;-62
2023/07/29 06:41:50;;;;;;;;;;;;;;;;;;5000552;28;19921;-62
2023/07/29 06:44:16;;;;;;;;;;;;;;;;;;4998226;28;19929;-62
2023/07/29 06:46:42;;;;;;;;;;;;;;;;;;5001473;28;19980;-62
2023/07/29 06:49:08;;;;;;;;;;;;;;;;;;4998275;28;19929;-62
2023/07/29 06:51:35;;;;;;;;;;;;;;;;;;5007888;28;20370;-61
2023/07/29 06:54:01;;;;;;;;;;;;;;;;;;4998768;28;19968;-61
2023/07/29 06:56:26;;;;;;;;;;;;;;;;;;5002152;28;19965;-61
2023/07/29 06:58:52;;;;;;;;;;;;;;;;;;5005953;28;19932;-62
2023/07/29 07:01:18;;;;;;;;;;;;;;;;;;4998013;28;19929;-61
2023/07/29 07:03:44;;;;;;;;;;;;;;;;;;5001880;28;19973;-61
2023/07/29 07:06:10;;;;;;;;;;;;;;;;;;4987124;28;20382;-61
2023/07/29 07:08:36;;;;;;;;;;;;;;;;;;5004879;28;19987;-61
2023/07/29 07:11:02;;;;;;;;;;;;;;;;;;5005268;28;19956;-62
2023/07/29 07:13:28;;;;;;;;;;;;;;;;;;5005042;28;20367;-61
2023/07/29 07:15:54;;;;;;;;;;;;;;;;;;4999305;28;19932;-61
2023/07/29 07:18:22;;;;;;;;;;;;;;;;;;4992617;28;19981;-61
2023/07/29 07:20:48;;;;;;;;;;;;;;;;;;4996691;28;20022;-61
2023/07/29 07:23:13;;;;;;;;;;;;;;;;;;5009864;28;20046;-62
2023/07/29 07:25:39;;;;;;;;;;;;;;;;;;4979169;28;20344;-61
2023/07/29 07:28:05;;;;;;;;;;;;;;;;;;5007678;28;19921;-61
2023/07/29 07:30:31;;;;;;;;;;;;;;;;;;5006019;28;20306;-61
2023/07/29 07:32:57;;;;;;;;;;;;;;;;;;5005532;28;20375;-61
2023/07/29 07:35:23;;;;;;;;;;;;;;;;;;5008213;28;20536;-61
2023/07/29 07:37:49;;;;;;;;;;;;;;;;;;5012009;28;19921;-61
2023/07/29 07:40:15;;;;;;;;;;;;;;;;;;5012004;28;19968;-61
2023/07/29 07:42:41;;;;;;;;;;;;;;;;;;5011770;28;19925;-62
2023/07/29 07:45:07;;;;;;;;;;;;;;;;;;5011877;28;20351;-61
2023/07/29 07:47:33;;;;;;;;;;;;;;;;;;4994309;28;19971;-61
2023/07/29 07:49:59;;;;;;;;;;;;;;;;;;5012194;28;19925;-62
2023/07/29 07:52:25;;;;;;;;;;;;;;;;;;5011690;28;20326;-61
2023/07/29 07:54:51;;;;;;;;;;;;;;;;;;4994394;28;19928;-61
2023/07/29 07:57:17;;;;;;;;;;;;;;;;;;5011859;28;19921;-62
2023/07/29 07:59:42;;;;;;;;;;;;;;;;;;5012176;28;20003;-61
2023/07/29 08:02:08;;;;;;;;;;;;;;;;;;5011945;28;20004;-61
2023/07/29 08:04:34;;;;;;;;;;;;;;;;;;4994213;28;19976;-61
2023/07/29 08:07:00;;;;;;;;;;;;;;;;;;5011865;28;19925;-61
2023/07/29 08:09:26;;;;;;;;;;;;;;;;;;5011744;28;19937;-61
2023/07/29 08:11:52;;;;;;;;;;;;;;;;;;5012037;28;19980;-62
2023/07/29 08:14:18;;;;;;;;;;;;;;;;;;5011985;28;19922;-61
2023/07/29 08:16:44;;;;;;;;;;;;;;;;;;5011588;28;20424;-62
2023/07/29 08:19:10;;;;;;;;;;;;;;;;;;5011550;28;19972;-61
2023/07/29 08:21:36;;;;;;;;;;;;;;;;;;5011719;28;19925;-62
2023/07/29 08:24:02;;;;;;;;;;;;;;;;;;4992636;28;19972;-61
2023/07/29 08:26:28;;;;;;;;;;;;;;;;;;4999663;28;19922;-62
2023/07/29 08:28:54;;;;;;;;;;;;;;;;;;5003730;28;19932;-62
2023/07/29 08:31:20;;;;;;;;;;;;;;;;;;4992095;28;20016;-62
2023/07/29 08:33:45;;;;;;;;;;;;;;;;;;4999076;28;20363;-61
2023/07/29 08:36:11;;;;;;;;;;;;;;;;;;5010722;28;19928;-62
2023/07/29 08:38:37;;;;;;;;;;;;;;;;;;5011602;28;20291;-62
2023/07/29 08:41:03;;;;;;;;;;;;;;;;;;5003818;28;19933;-60
2023/07/29 08:43:30;;;;;;;;;;;;;;;;;;4999724;28;20016;-62
2023/07/29 08:45:56;;;;;;;;;;;;;;;;;;4994002;28;19972;-62
2023/07/29 08:48:22;;;;;;;;;;;;;;;;;;5011400;28;19926;-62
2023/07/29 08:50:48;;;;;;;;;;;;;;;;;;5011313;28;19945;-61
2023/07/29 08:53:14;;;;;;;;;;;;;;;;;;5010782;28;19922;-62
2023/07/29 08:55:40;;;;;;;;;;;;;;;;;;5010591;28;19932;-61
2023/07/29 08:58:05;;;;;;;;;;;;;;;;;;4996089;28;19922;-61
2023/07/29 09:00:31;;;;;;;;;;;;;;;;;;5014451;28;19956;-61
2023/07/29 09:03:02;;;;;;;;;;;;;;;;;;4996400;28;19921;-61
2023/07/29 09:05:28;;;;;;;;;;;;;;;;;;4996840;28;20383;-61
2023/07/29 09:07:54;;;;;;;;;;;;;;;;;;5014627;28;19925;-61
2023/07/29 09:10:20;;;;;;;;;;;;;;;;;;5014250;28;19976;-62
2023/07/29 09:12:45;;;;;;;;;;;;;;;;;;5014148;28;19972;-62
2023/07/29 09:15:11;;;;;;;;;;;;;;;;;;4996820;28;20004;-62
2023/07/29 09:17:37;;;;;;;;;;;;;;;;;;5012992;28;19971;-62
2023/07/29 09:20:04;;;;;;;;;;;;;;;;;;5013686;28;19932;-62
2023/07/29 09:22:30;;;;;;;;;;;;;;;;;;5013686;28;19969;-61
2023/07/29 09:24:56;;;;;;;;;;;;;;;;;;5013625;28;19983;-62
2023/07/29 09:27:22;;;;;;;;;;;;;;;;;;5013620;28;20339;-61
2023/07/29 09:29:48;;;;;;;;;;;;;;;;;;5013613;28;19929;-62
2023/07/29 09:32:14;;;;;;;;;;;;;;;;;;4995786;28;20337;-62
2023/07/29 09:34:40;;;;;;;;;;;;;;;;;;5011775;28;19968;-61
2023/07/29 09:37:05;;;;;;;;;;;;;;;;;;5012770;28;19925;-62
2023/07/29 09:39:31;;;;;;;;;;;;;;;;;;4980328;28;19964;-62
2023/07/29 09:41:58;;;;;;;;;;;;;;;;;;5014390;28;19921;-61
2023/07/29 09:44:24;;;;;;;;;;;;;;;;;;5013878;28;20445;-62
2023/07/29 09:46:49;;;;;;;;;;;;;;;;;;5014336;28;19925;-61
2023/07/29 09:49:15;;;;;;;;;;;;;;;;;;4996284;28;19971;-61
2023/07/29 09:51:41;;;;;;;;;;;;;;;;;;4996194;28;20330;-61
2023/07/29 09:54:07;;;;;;;;;;;;;;;;;;5013991;28;19925;-61
2023/07/29 09:56:33;;;;;;;;;;;;;;;;;;5014157;28;19925;-61
2023/07/29 09:58:59;;;;;;;;;;;;;;;;;;5013989;28;19928;-62
2023/07/29 10:01:25;;;;;;;;;;;;;;;;;;5013983;28;19921;-62
2023/07/29 10:03:51;;;;;;;;;;;;;;;;;;4995955;28;19929;-61
2023/07/29 10:06:17;;;;;;;;;;;;;;;;;;5013981;28;19925;-62
2023/07/29 10:08:43;;;;;;;;;;;;;;;;;;4995569;28;20024;-62
2023/07/29 10:11:09;;;;;;;;;;;;;;;;;;5013897;28;19921;-62
2023/07/29 10:13:34;;;;;;;;;;;;;;;;;;5013527;28;20406;-62
2023/07/29 10:16:03;;;;;;;;;;;;;;;;;;5013715;28;19926;-62
2023/07/29 10:18:29;;;;;;;;;;;;;;;;;;4998411;28;19925;-61
2023/07/29 10:20:55;;;;;;;;;;;;;;;;;;4993997;28;19929;-62
2023/07/29 10:23:21;;;;;;;;;;;;;;;;;;4993965;28;19926;-62
2023/07/29 10:25:47;;;;;;;;;;;;;;;;;;5004160;28;19961;-61
2023/07/29 10:28:13;;;;;;;;;;;;;;;;;;5013549;28;20363;-62
2023/07/29 10:30:38;;;;;;;;;;;;;;;;;;5013230;28;19922;-61
2023/07/29 10:33:04;;;;;;;;;;;;;;;;;;5013160;28;20358;-61
2023/07/29 10:35:30;;;;;;;;;;;;;;;;;;5012122;28;19932;-61
2023/07/29 10:37:56;;;;;;;;;;;;;;;;;;5011748;28;20319;-62
2023/07/29 10:40:22;;;;;;;;;;;;;;;;;;5013148;28;19952;-61
2023/07/29 10:42:48;;;;;;;;;;;;;;;;;;5012775;28;20374;-62
2023/07/29 10:45:14;;;;;;;;;;;;;;;;;;4995199;28;19929;-61
2023/07/29 10:47:40;;;;;;;;;;;;;;;;;;5012952;28;20523;-62
2023/07/29 10:50:06;;;;;;;;;;;;;;;;;;5012889;28;20020;-62
2023/07/29 10:52:32;;;;;;;;;;;;;;;;;;5012951;28;19968;-61
2023/07/29 10:54:58;;;;;;;;;;;;;;;;;;5012035;28;19925;-62
2023/07/29 10:57:24;;;;;;;;;;;;;;;;;;5012182;28;19933;-61
2023/07/29 10:59:50;;;;;;;;;;;;;;;;;;5011726;28;19921;-61
2023/07/29 11:02:16;;;;;;;;;;;;;;;;;;5012527;28;19926;-62
2023/07/29 11:04:44;;;;;;;;;;;;;;;;;;5006190;28;21282;-61
2023/07/29 11:07:11;;;;;;;;;;;;;;;;;;5005264;28;19929;-62
2023/07/29 11:09:37;;;;;;;;;;;;;;;;;;4990633;28;20005;-62
2023/07/29 11:12:03;;;;;;;;;;;;;;;;;;5008147;28;20015;-62
2023/07/29 11:14:29;;;;;;;;;;;;;;;;;;5008548;28;20349;-62
2023/07/29 11:16:55;;;;;;;;;;;;;;;;;;5009674;28;19922;-62
2023/07/29 11:19:20;;;;;;;;;;;;;;;;;;5015363;28;19922;-61
2023/07/29 11:21:46;;;;;;;;;;;;;;;;;;4990738;28;19964;-62
2023/07/29 11:24:12;;;;;;;;;;;;;;;;;;5011401;28;19980;-62
2023/07/29 11:26:38;;;;;;;;;;;;;;;;;;5015325;28;20367;-62
2023/07/29 11:29:05;;;;;;;;;;;;;;;;;;4993773;28;19928;-62
2023/07/29 11:31:30;;;;;;;;;;;;;;;;;;5009672;28;19925;-62
2023/07/29 11:33:56;;;;;;;;;;;;;;;;;;5010664;28;20267;-62
2023/07/29 11:36:24;;;;;;;;;;;;;;;;;;5009913;28;19931;-62
2023/07/29 11:38:50;;;;;;;;;;;;;;;;;;4987433;28;19973;-62
2023/07/29 11:41:16;;;;;;;;;;;;;;;;;;5010056;28;19960;-62
2023/07/29 11:43:41;;;;;;;;;;;;;;;;;;5011135;28;19929;-62
2023/07/29 11:46:08;;;;;;;;;;;;;;;;;;5009228;28;20438;-62
2023/07/29 11:48:34;;;;;;;;;;;;;;;;;;5010426;28;20008;-62
2023/07/29 11:51:00;;;;;;;;;;;;;;;;;;5010260;28;20004;-62
2023/07/29 11:53:25;;;;;;;;;;;;;;;;;;5009716;28;19926;-62
2023/07/29 11:55:52;;;;;;;;;;;;;;;;;;5006028;28;20784;-62
2023/07/29 11:58:18;;;;;;;;;;;;;;;;;;4989421;28;20008;-62
2023/07/29 12:00:44;;;;;;;;;;;;;;;;;;5006575;28;20016;-62
2023/07/29 12:03:10;;;;;;;;;;;;;;;;;;5022341;28;19928;-61
2023/07/29 12:05:36;;;;;;;;;;;;;;;;;;5013840;28;20008;-62
2023/07/29 12:08:02;;;;;;;;;;;;;;;;;;5008960;28;20033;-62
2023/07/29 12:10:28;;;;;;;;;;;;;;;;;;5011692;28;19922;-61
2023/07/29 12:12:54;;;;;;;;;;;;;;;;;;4994168;28;19968;-62
2023/07/29 12:15:20;;;;;;;;;;;;;;;;;;4995480;28;19928;-62
2023/07/29 12:17:46;;;;;;;;;;;;;;;;;;5001280;28;19936;-61
2023/07/29 12:20:12;;;;;;;;;;;;;;;;;;4992377;28;19926;-61
2023/07/29 12:22:38;;;;;;;;;;;;;;;;;;4992204;28;20025;-61
2023/07/29 12:25:04;;;;;;;;;;;;;;;;;;5004522;28;19991;-62
2023/07/29 12:27:30;;;;;;;;;;;;;;;;;;4992092;28;19925;-61
2023/07/29 12:29:56;;;;;;;;;;;;;;;;;;5006016;28;19975;-62
2023/07/29 12:32:22;;;;;;;;;;;;;;;;;;5010744;28;19964;-62
2023/07/29 12:34:48;;;;;;;;;;;;;;;;;;4996971;28;19930;-62
2023/07/29 12:37:14;;;;;;;;;;;;;;;;;;5014292;28;19933;-62
2023/07/29 12:39:40;;;;;;;;;;;;;;;;;;5009104;28;19930;-62
2023/07/29 12:42:06;;;;;;;;;;;;;;;;;;5009579;28;19925;-63
2023/07/29 12:44:32;;;;;;;;;;;;;;;;;;5000294;28;19983;-62
2023/07/29 12:46:58;;;;;;;;;;;;;;;;;;5008606;28;19922;-62
2023/07/29 12:49:24;;;;;;;;;;;;;;;;;;5013742;28;19958;-63
2023/07/29 12:51:50;;;;;;;;;;;;;;;;;;5016372;28;20357;-62
2023/07/29 12:54:16;;;;;;;;;;;;;;;;;;4993740;28;19928;-62
2023/07/29 12:56:42;;;;;;;;;;;;;;;;;;5011175;28;19930;-62
2023/07/29 12:59:08;;;;;;;;;;;;;;;;;;4991817;28;19922;-62
2023/07/29 13:01:34;;;;;;;;;;;;;;;;;;4994353;28;19925;-62
2023/07/29 13:04:00;;;;;;;;;;;;;;;;;;5013201;28;19953;-62
2023/07/29 13:06:26;;;;;;;;;;;;;;;;;;5010286;28;20019;-62
2023/07/29 13:08:51;;;;;;;;;;;;;;;;;;5006467;28;19925;-62
2023/07/29 13:11:18;;;;;;;;;;;;;;;;;;5010786;28;19925;-62
2023/07/29 13:13:45;;;;;;;;;;;;;;;;;;5007847;28;19929;-62
2023/07/29 13:16:11;;;;;;;;;;;;;;;;;;5008718;28;20426;-62
2023/07/29 13:18:37;;;;;;;;;;;;;;;;;;4996519;28;20000;-62
2023/07/29 13:21:02;;;;;;;;;;;;;;;;;;4995466;28;19925;-62
2023/07/29 13:23:29;;;;;;;;;;;;;;;;;;5021383;28;19971;-62
2023/07/29 13:25:55;;;;;;;;;;;;;;;;;;5009253;28;19925;-62
2023/07/29 13:28:21;;;;;;;;;;;;;;;;;;5006020;28;19944;-62
2023/07/29 13:30:47;;;;;;;;;;;;;;;;;;4992365;28;20016;-62
2023/07/29 13:33:13;;;;;;;;;;;;;;;;;;5011220;28;19979;-62
2023/07/29 13:35:39;;;;;;;;;;;;;;;;;;5014293;28;19968;-62
2023/07/29 13:38:05;;;;;;;;;;;;;;;;;;5010929;28;19933;-64
2023/07/29 13:40:31;;;;;;;;;;;;;;;;;;5010557;28;19922;-65
2023/07/29 13:42:57;;;;;;;;;;;;;;;;;;4994073;28;19925;-65
2023/07/29 13:45:23;;;;;;;;;;;;;;;;;;4992125;28;20302;-67
2023/07/29 13:47:48;;;;;;;;;;;;;;;;;;5008495;28;19929;-67
2023/07/29 13:50:15;;;;;;;;;;;;;;;;;;5008169;28;19929;-68
2023/07/29 13:52:40;;;;;;;;;;;;;;;;;;5017336;28;20374;-67
2023/07/29 13:55:06;;;;;;;;;;;;;;;;;;5007889;28;20004;-67
2023/07/29 13:57:32;;;;;;;;;;;;;;;;;;5009700;28;19929;-67
2023/07/29 13:59:58;;;;;;;;;;;;;;;;;;5011947;28;20019;-67
2023/07/29 14:02:26;;;;;;;;;;;;;;;;;;4992652;28;19930;-67
2023/07/29 14:04:51;;;;;;;;;;;;;;;;;;5011806;28;19932;-67
2023/07/29 14:07:17;;;;;;;;;;;;;;;;;;5012304;28;19929;-67
2023/07/29 14:09:43;;;;;;;;;;;;;;;;;;5013838;28;19968;-68
2023/07/29 14:12:12;;;;;;;;;;;;;;;;;;5012751;28;20381;-68
2023/07/29 14:14:38;;;;;;;;;;;;;;;;;;5007981;28;19921;-67
2023/07/29 14:17:04;;;;;;;;;;;;;;;;;;5010944;28;20349;-68
2023/07/29 14:19:29;;;;;;;;;;;;;;;;;;5011063;28;19921;-67
2023/07/29 14:21:55;;;;;;;;;;;;;;;;;;5011956;28;19922;-67
2023/07/29 14:24:22;;;;;;;;;;;;;;;;;;5004362;28;19940;-67
2023/07/29 14:26:48;;;;;;;;;;;;;;;;;;5010804;28;19960;-67
2023/07/29 14:29:14;;;;;;;;;;;;;;;;;;4989679;28;19957;-72
2023/07/29 14:31:40;;;;;;;;;;;;;;;;;;5005835;28;20367;-67
2023/07/29 14:34:06;;;;;;;;;;;;;;;;;;5005237;28;19952;-67
2023/07/29 14:36:32;;;;;;;;;;;;;;;;;;5008679;28;20403;-67
2023/07/29 14:38:57;;;;;;;;;;;;;;;;;;5008727;28;19968;-68
2023/07/29 14:41:23;;;;;;;;;;;;;;;;;;5006756;28;19922;-66
2023/07/29 14:43:49;;;;;;;;;;;;;;;;;;5011687;28;19936;-65
2023/07/29 14:46:15;;;;;;;;;;;;;;;;;;5013111;28;19925;-65
2023/07/29 14:48:41;;;;;;;;;;;;;;;;;;5012996;28;19928;-65
2023/07/29 14:51:07;;;;;;;;;;;;;;;;;;5013215;28;19921;-65
2023/07/29 14:53:33;;;;;;;;;;;;;;;;;;4992693;28;19925;-65
2023/07/29 14:55:59;;;;;;;;;;;;;;;;;;4992927;28;19949;-65
2023/07/29 14:58:25;;;;;;;;;;;;;;;;;;4990970;28;19929;-65
2023/07/29 15:00:51;;;;;;;;;;;;;;;;;;5012936;28;20371;-65
2023/07/29 15:03:17;;;;;;;;;;;;;;;;;;5012694;28;19932;-65
2023/07/29 15:05:43;;;;;;;;;;;;;;;;;;5012696;28;20000;-65
2023/07/29 15:08:09;;;;;;;;;;;;;;;;;;5012440;28;19926;-65
2023/07/29 15:10:35;;;;;;;;;;;;;;;;;;5011498;28;19925;-65
2023/07/29 15:13:00;;;;;;;;;;;;;;;;;;5012798;28;19926;-65
2023/07/29 15:15:26;;;;;;;;;;;;;;;;;;5012206;28;19922;-65
2023/07/29 15:17:52;;;;;;;;;;;;;;;;;;5012569;28;19925;-65
2023/07/29 15:20:18;;;;;;;;;;;;;;;;;;5012443;28;19965;-65
2023/07/29 15:22:44;;;;;;;;;;;;;;;;;;5012367;28;19925;-65
2023/07/29 15:25:10;;;;;;;;;;;;;;;;;;5010950;28;20267;-65
2023/07/29 15:27:36;;;;;;;;;;;;;;;;;;5012501;28;20303;-65
2023/07/29 15:30:02;;;;;;;;;;;;;;;;;;5012242;28;20346;-65
2023/07/29 15:32:28;;;;;;;;;;;;;;;;;;5012236;28;19925;-65
2023/07/29 15:34:54;;;;;;;;;;;;;;;;;;5012333;28;20323;-65
2023/07/29 15:37:20;;;;;;;;;;;;;;;;;;5012382;28;19922;-66
2023/07/29 15:39:46;;;;;;;;;;;;;;;;;;5011666;28;20015;-66
2023/07/29 15:42:11;;;;;;;;;;;;;;;;;;5008558;28;19972;-65
2023/07/29 15:44:37;;;;;;;;;;;;;;;;;;5011820;28;20609;-65
2023/07/29 15:47:03;;;;;;;;;;;;;;;;;;5012219;28;19936;-66
2023/07/29 15:49:29;;;;;;;;;;;;;;;;;;5011806;28;19922;-66
2023/07/29 15:51:55;;;;;;;;;;;;;;;;;;5011977;28;20032;-66
2023/07/29 15:54:21;;;;;;;;;;;;;;;;;;5011788;28;20418;-66
2023/07/29 15:56:47;;;;;;;;;;;;;;;;;;5011933;28;19928;-65
2023/07/29 15:59:13;;;;;;;;;;;;;;;;;;5010728;28;19930;-65
2023/07/29 16:01:39;;;;;;;;;;;;;;;;;;5011837;28;19925;-65
2023/07/29 16:04:04;;;;;;;;;;;;;;;;;;5011780;28;19925;-65
2023/07/29 16:06:30;;;;;;;;;;;;;;;;;;5015644;28;19976;-65
2023/07/29 16:08:56;;;;;;;;;;;;;;;;;;5018165;28;19936;-65
2023/07/29 16:11:22;;;;;;;;;;;;;;;;;;5000552;28;19929;-65
2023/07/29 16:13:48;;;;;;;;;;;;;;;;;;5018242;28;19921;-65
2023/07/29 16:16:14;;;;;;;;;;;;;;;;;;5016942;28;19922;-65
2023/07/29 16:18:40;;;;;;;;;;;;;;;;;;5018113;28;20068;-66
2023/07/29 16:21:06;;;;;;;;;;;;;;;;;;5018365;28;19926;-65
2023/07/29 16:23:32;;;;;;;;;;;;;;;;;;5026752;23;20288;-61
2023/07/29 16:25:58;;;;;;;;;;;;;;;;;;5018931;28;19926;-61
2023/07/29 16:28:23;;;;;;;;;;;;;;;;;;5018271;28;19926;-61
2023/07/29 16:30:49;;;;;;;;;;;;;;;;;;5021123;28;20631;-61
2023/07/29 16:33:15;;;;;;;;;;;;;;;;;;5038075;28;20031;-61
2023/07/29 16:35:41;;;;;;;;;;;;;;;;;;5037727;28;19968;-61